| Record Date MM/DD/YYYY | Record Julian Date NNN day of the year | Air Temperature Max (Degrees Fahrenheit F) | Time Max Air Temperature HH:MM:SS This is the time of max air temperature standard time. | Air Temperature Min (Degrees Fahrenheit F) | Time Min Air Temperature HH:MM:SS This is the time of min air temperature standard time. | Air Temperature Observed (Degrees Fahrenheit F) This is an instantaneous reading for air temperature at 7:00:00 standard time. | Relative Humidity Max (Percent) | Time Max Relative Humidity HH:MM:SS This is the time of max relative humidity standard time. | Relative Humidity Min (Percent) | Time Min Relative Humidity HH:MM:SS This is the time of min relative humidity standard time. | Relative Humidity Observed (Percent) This is an instantaneous reading at 7:00:00 standard time. | Precipitation (Inches n.nn) total rain fall that occurred for the day. | Pan Evaporation (Inches n.nn) total evaporation that occured for the day. | Wind Run (Miles) Wind travel for the day. | Wind Speed (Miles Per Hour) Resultant / Average speed for the day. | Wind Direction (Degrees) Resultant Direction for the day | Solar Radiation (Langley's) that occurred for the day. | Soil Temperature Max at 2 inch depth (Degrees Fahrenheit F) that occurred during the day. | Time Max Soil temperature at 2 inches HH:MM:SS This is the time of max 2 inch soil temperature standard time. | Soil Temperature Min at 2 inch depth (Degrees Fahrenheit F) that occurred during the day. | Time Min Soil temperature at 2 inches HH:MM:SS This is the time of min 2 inch soil temperature standard time. | Soil Temperature Observed at 2 inch depth (Degrees Fahrenheit F) This is an instantaneous reading 2 inch soil temperature at 7:00:00 standard time. | Soil Temperature Max at 4 inch depth (Degrees Fahrenheit F) that occurred during the day. | Time Max Soil temperature at 4 inches HH:MM:SS This is the time of max 4 inch soil temperature standard time. | Soil Temperature Min at 4 inch depth (Degrees Fahrenheit F) that occurred during the day. | Time Min Soil temperature at 4 inches HH:MM:SS This is the time of min 4 inch soil temperature standard time. | Soil Temperature Observed at 4 inch depth (Degrees Fahrenheit F) This is an instantaneous reading 4 inch soil temperature at 7:00:00 standard time. | DD50 Degree Days 50 Fahrenheit. | Adjusted DD50 Degree Days 50 Fahrenheit adjusted for latitude. | DD60 Degree Days 60 Fahrenheit. |
|---|---|---|---|---|---|---|---|---|---|---|---|---|---|---|---|---|---|---|---|---|---|---|---|---|---|---|---|---|---|---|
| 04/08/2026 | 98 | 82 | 13:32:05 | 54 | 1:16:01 | 58 | 79 | 1:14:02 | 27 | 14:12:03 | 62 | 0 | 18 | 19.16 | 8 | |||||||||||||||
| 04/09/2026 | 99 | 82 | 15:29:00 | 51 | 5:55:03 | 59 | 87 | 5:54:02 | 33 | 15:03:04 | 65 | 0 | 16.5 | 17.7 | 6.5 | |||||||||||||||
| 04/10/2026 | 100 | 84 | 14:23:03 | 53 | 4:44:01 | 61 | 88 | 5:30:02 | 36 | 15:49:00 | 72 | 0 | 18.5 | 19.73 | 8.5 | |||||||||||||||
| 04/11/2026 | 101 | 86 | 15:18:03 | 56 | 3:10:04 | 62 | 89 | 5:40:01 | 37 | 14:03:04 | 84 | 0 | 21 | 22.26 | 11 | |||||||||||||||
| 04/12/2026 | 102 | 87 | 14:12:03 | 59 | 5:48:03 | 64 | 85 | 5:50:01 | 32 | 14:14:00 | 78 | 0 | 23 | 24.29 | 13 | |||||||||||||||
| 04/13/2026 | 103 | 84 | 14:21:05 | 68 | 6:04:03 | 69 | 82 | 6:51:01 | 53 | 14:21:05 | 82 | 0 | 26 | 27.32 | 16 | |||||||||||||||
| 04/14/2026 | 104 | 87 | 15:15:03 | 66 | 5:45:05 | 70 | 84 | 5:47:00 | 41 | 16:11:01 | 82 | 0 | 26.5 | 27.35 | 16.5 | |||||||||||||||
| 04/15/2026 | 105 | 87 | 15:34:03 | 65 | 5:04:00 | 68 | 83 | 6:21:03 | 34 | 14:34:00 | 80 | 0 | 26 | 27.38 | 16 | |||||||||||||||
| 04/16/2026 | 106 | 89 | 15:37:02 | 68 | 23:44:03 | 71 | 82 | 6:05:03 | 36 | 16:04:03 | 81 | 0 | 28.5 | 27.41 | 18.5 | |||||||||||||||
| 04/17/2026 | 107 | 90 | 14:16:05 | 66 | 2:42:00 | 72 | 84 | 5:56:05 | 41 | 14:56:00 | 81 | 0 | 28 | 27.44 | 18 | |||||||||||||||
| 04/18/2026 | 108 | 79 | 9:31:01 | 51 | 23:59:00 | 71 | 89 | 23:53:00 | 66 | 9:31:04 | 79 | 0 | 15 | 16.47 | 5 | |||||||||||||||
| 04/19/2026 | 109 | 75 | 15:06:05 | 46 | 3:49:01 | 48 | 90 | 8:09:02 | 26 | 15:41:00 | 89 | 0 | 10.5 | 12 | 0.5 | |||||||||||||||
| 04/20/2026 | 110 | 80 | 16:27:04 | 41 | 4:57:02 | 50 | 87 | 7:07:01 | 26 | 14:32:04 | 85 | 0 | 10.5 | 12.03 | 0.5 | |||||||||||||||
| 04/21/2026 | 111 | 84 | 14:16:00 | 45 | 4:58:04 | 53 | 87 | 7:08:03 | 22 | 14:23:05 | 84 | 0 | 14.5 | 16.06 | 4.5 | |||||||||||||||
| 04/22/2026 | 112 | 86 | 14:07:03 | 52 | 5:02:00 | 60 | 86 | 4:59:00 | 25 | 14:05:02 | 79 | 0 | 19 | 20.59 | 9 | |||||||||||||||
| 04/23/2026 | 113 | 87 | 14:28:05 | 61 | 0:00:01 | 67 | 83 | 6:30:02 | 34 | 14:28:02 | 83 | 0 | 24 | 25.61 | 14 | |||||||||||||||
| 04/24/2026 | 114 | 79 | 11:23:05 | 61 | 17:23:01 | 68 | 84 | 12:47:00 | 58 | 11:47:01 | 82 | 0 | 20 | 21.64 | 10 | |||||||||||||||
| 04/25/2026 | 115 | 83 | 17:25:03 | 60 | 5:38:01 | 64 | 86 | 8:12:04 | 53 | 15:06:04 | 72 | 0 | 21.5 | 23.17 | 11.5 | |||||||||||||||
| 04/26/2026 | 116 | 87 | 13:52:05 | 64 | 4:28:04 | 69 | 86 | 6:50:00 | 50 | 17:00:03 | 85 | 0 | 25.5 | 27.2 | 15.5 | |||||||||||||||
| 04/27/2026 | 117 | 84 | 12:06:05 | 71 | 4:08:05 | 73 | 85 | 3:48:05 | 67 | 12:08:01 | 85 | 0 | 27.5 | 27.72 | 17.5 | |||||||||||||||
| 04/28/2026 | 118 | 78 | 12:24:03 | 67 | 15:07:03 | 71 | 86 | 14:51:00 | 64 | 15:57:00 | 80 | 0 | 22.5 | 24.25 | 12.5 | |||||||||||||||
| 04/29/2026 | 119 | 75 | 12:42:03 | 64 | 0:00:00 | 70 | 86 | 20:30:03 | 76 | 2:19:05 | 80 | 0 | 19.5 | 21.27 | 9.5 | |||||||||||||||
| 04/30/2026 | 120 | 71 | 12:56:05 | 56 | 6:01:00 | 58 | 88 | 0:30:01 | 51 | 11:27:04 | 82 | 0 | 13.5 | 15.3 | 3.5 | |||||||||||||||
| 05/01/2026 | 121 | 70 | 16:13:05 | 55 | 5:39:05 | 56 | 86 | 6:09:00 | 54 | 16:14:05 | 84 | 0 | 12.5 | 14.32 | 2.5 | |||||||||||||||
| 05/02/2026 | 122 | 74 | 14:30:00 | 48 | 5:01:03 | 54 | 88 | 5:01:02 | 30 | 14:43:02 | 74 | 0 | 11 | 12.84 | 1 | |||||||||||||||
| 05/03/2026 | 123 | 79 | 15:31:02 | 48 | 4:47:05 | 55 | 88 | 0:48:01 | 32 | 12:45:00 | 76 | 0 | 13.5 | 15.37 | 3.5 | |||||||||||||||
| 05/04/2026 | 124 | 81 | 13:40:00 | 55 | 4:50:01 | 62 | 87 | 5:23:00 | 35 | 14:17:02 | 77 | 0 | 18 | 19.89 | 8 | |||||||||||||||
| 05/05/2026 | 125 | 75 | 14:51:03 | 61 | 0:19:01 | 65 | 83 | 15:55:01 | 72 | 12:41:03 | 74 | 0 | 18 | 19.91 | 8 | |||||||||||||||
| 05/06/2026 | 126 | 75 | 0:18:05 | 55 | 23:59:05 | 62 | 88 | 15:00:01 | 73 | 4:55:05 | 81 | 0 | 15 | 16.93 | 5 | |||||||||||||||
| 05/07/2026 | 127 | 74 | 14:58:04 | 53 | 5:34:02 | 56 | 88 | 6:24:03 | 43 | 13:29:03 | 87 | 0 | 13.5 | 15.45 | 3.5 | |||||||||||||||
| Average | 81.13 | 57.33 | 62.87 | 85.8 | 44.23 | 79.5 | 0 | 0 | 0 | 0 | 0 | 0 | 0 | 0 | 0 | 19.23 | 20.6 | 9.23 | ||||||||||||
| Total | 0 | 577 | 618.06 | 277 |